Who's Online

We have 3 guests online

Aviation WX

[source: ADDS]
KIAD 260852Z 00000KT 10SM CLR 02/M01 A3042 RMK AO2 SLP300 T00171011 55000 =
KIAD 260854Z 2609/2712 VRB03KT P6SM FEW200 FM262000 VRB03KT P6SM BKN100 FM271100 15007KT P6SM SCT050 BKN070 =
SR / SS: 01:12 / 11:59 UTC (Washington-Dulles 2016-10-26)

JoomlaWatch Agent

Home Products and Services

This section describes Multilink Systems products and services



Under construction Please Standby